Archival Weather

Snohomish County (Paine Fld)

Everett, Washington (KPAE)

Report from: Sunday, October 29, 2023 10:53 PM PDT
Current time: Friday, June 14, 2024 5:52 AM PDT

Current weather – Weather history – Daily summaries
Weather forecast

Temperature5.0°C (41.0°F)
Wind chill3.9°C (39.0°F)
Dew point2.8°C (37.0°F)
Winds 3 kts (1.5 m/s, 3.5 mph) North (350°)
Visibility10 mi. (16.1 km)
Clouds Sky clear
Altimeter30.39 in.Hg (1029 mB)
Relative humidity86 %
Density altitude-1,642 ft. (-500 m)
Sea-level pressure102.9 kPa (1029 mB, 30.40 in.Hg)
Max temp last 6 hours9.4°C (48.9°F)
Min temp last 6 hours5.0°C (41.0°F)
Remarks Fully automated report
Automated weather observing station with precipitation discriminator
Pressure rising more quickly
Flight conditions Visual Meteorological Conditions
Raw dataKPAE 300553Z AUTO 35003KT 10SM CLR 05/03 A3039 RMK AO2 SLP293 T00500028 10094 20050 53001
An error has occurred. This application may no longer respond until reloaded. Reload 🗙